createdAt,value
2024-02-20T00:00:14.901Z,6.90
2024-02-20T00:05:38.642Z,6.10
2024-02-20T00:10:42.210Z,7.00
2024-02-20T00:15:46.996Z,5.90
2024-02-20T00:20:51.314Z,6.40
2024-02-20T00:25:55.198Z,6.50
2024-02-20T00:30:58.589Z,6.30
2024-02-20T00:36:03.410Z,6.90
2024-02-20T00:41:06.935Z,7.80
2024-02-20T00:46:10.443Z,8.30
2024-02-20T00:51:18.306Z,8.30
2024-02-20T00:56:22.719Z,8.10
2024-02-20T01:01:26.828Z,8.40
2024-02-20T01:06:30.386Z,6.10
2024-02-20T01:11:35.005Z,8.00
2024-02-20T01:16:38.466Z,7.10
2024-02-20T01:21:42.250Z,7.00
2024-02-20T01:26:45.860Z,8.00
2024-02-20T01:31:51.020Z,6.60
2024-02-20T01:36:54.806Z,6.50
2024-02-20T01:41:58.969Z,8.40
2024-02-20T01:47:03.377Z,6.40
2024-02-20T01:52:13.803Z,7.70
2024-02-20T01:57:19.569Z,7.40
2024-02-20T02:02:22.939Z,6.60
2024-02-20T02:07:26.542Z,7.10
2024-02-20T02:12:30.540Z,7.10
2024-02-20T02:17:34.043Z,6.10
2024-02-20T02:22:37.691Z,6.40
2024-02-20T02:27:41.125Z,8.10
2024-02-20T02:32:45.220Z,6.70
2024-02-20T02:37:48.943Z,7.40
2024-02-20T02:42:52.456Z,4.50
2024-02-20T02:47:55.891Z,7.20
2024-02-20T02:52:59.310Z,10.10
2024-02-20T02:58:03.398Z,6.40
2024-02-20T03:03:07.165Z,7.10
2024-02-20T03:08:12.408Z,10.50
2024-02-20T03:13:16.363Z,7.20
2024-02-20T03:18:19.819Z,8.10
2024-02-20T03:23:23.488Z,8.90
2024-02-20T03:28:27.452Z,6.80
2024-02-20T03:33:35.091Z,9.50
2024-02-20T03:38:38.673Z,8.00
2024-02-20T03:43:42.285Z,7.90
2024-02-20T03:48:45.913Z,8.20
2024-02-20T03:53:49.344Z,8.70
2024-02-20T03:58:52.828Z,9.90
2024-02-20T04:03:56.252Z,7.50
2024-02-20T04:09:05.591Z,7.90
2024-02-20T04:14:09.812Z,8.10
2024-02-20T04:19:13.352Z,6.90
2024-02-20T04:24:16.838Z,5.70
2024-02-20T04:29:20.182Z,5.50
2024-02-20T04:34:23.879Z,6.70
2024-02-20T04:39:27.433Z,6.80
2024-02-20T04:44:31.068Z,6.60
2024-02-20T04:49:35.856Z,5.60
2024-02-20T04:54:39.486Z,6.20
2024-02-20T04:59:46.362Z,9.00
2024-02-20T05:04:56.418Z,8.60
2024-02-20T05:10:01.127Z,6.50
2024-02-20T05:15:09.181Z,4.80
2024-02-20T05:20:12.899Z,5.90
2024-02-20T05:25:16.545Z,4.20
2024-02-20T05:30:20.009Z,6.50
2024-02-20T05:35:23.924Z,5.80
2024-02-20T05:40:27.611Z,6.20
2024-02-20T05:45:34.717Z,6.70
2024-02-20T05:50:38.305Z,6.60
2024-02-20T05:55:43.132Z,4.20
2024-02-20T06:00:48.284Z,4.70
2024-02-20T06:05:51.984Z,4.70
2024-02-20T06:10:55.767Z,4.90
2024-02-20T06:15:59.706Z,10.20
2024-02-20T06:21:04.088Z,11.30
2024-02-20T06:26:13.555Z,10.10
2024-02-20T06:31:19.498Z,9.20
2024-02-20T06:36:26.204Z,6.40
2024-02-20T06:41:29.981Z,6.50
2024-02-20T06:46:33.703Z,5.70
2024-02-20T06:51:37.742Z,4.50
2024-02-20T06:56:41.451Z,6.10
2024-02-20T07:01:45.204Z,5.70
2024-02-20T07:06:56.358Z,7.30
2024-02-20T07:12:00.246Z,5.00
2024-02-20T07:17:10.223Z,7.20
2024-02-20T07:22:14.235Z,7.00
2024-02-20T07:27:17.984Z,5.40
2024-02-20T07:32:21.716Z,5.50
2024-02-20T07:37:25.289Z,6.10
2024-02-20T07:42:29.016Z,6.70
2024-02-20T07:47:33.179Z,7.30
2024-02-20T07:52:37.912Z,8.70
2024-02-20T07:57:42.540Z,7.90
2024-02-20T08:02:46.380Z,5.30
2024-02-20T08:07:49.958Z,3.70
2024-02-20T08:12:53.529Z,4.70
2024-02-20T08:17:57.231Z,6.10
2024-02-20T08:23:01.338Z,6.10
2024-02-20T08:28:05.146Z,6.10
2024-02-20T08:33:09.002Z,5.50
2024-02-20T08:38:13.240Z,5.20
2024-02-20T08:43:17.288Z,7.10
2024-02-20T08:48:21.137Z,4.40
2024-02-20T08:53:25.408Z,3.90
2024-02-20T08:58:30.209Z,4.10
2024-02-20T09:03:34.020Z,4.00
2024-02-20T09:08:38.110Z,5.00
2024-02-20T09:13:41.909Z,3.10
2024-02-20T09:18:45.441Z,6.60
2024-02-20T09:23:50.644Z,5.70
2024-02-20T09:28:54.327Z,5.10
2024-02-20T09:33:59.674Z,5.50
2024-02-20T09:39:17.520Z,5.20
2024-02-20T09:44:22.720Z,4.30
2024-02-20T09:49:27.208Z,4.80
2024-02-20T09:55:23.030Z,5.00
2024-02-20T10:00:30.086Z,6.50
2024-02-20T10:05:39.638Z,6.50
2024-02-20T10:10:48.442Z,4.30
2024-02-20T10:16:05.144Z,5.20
2024-02-20T10:21:09.284Z,6.20
2024-02-20T10:26:13.769Z,4.10
2024-02-20T10:31:17.553Z,5.60
2024-02-20T10:36:24.834Z,4.50
2024-02-20T10:41:28.984Z,5.10
2024-02-20T10:46:39.854Z,4.60
2024-02-20T10:51:45.242Z,6.40
2024-02-20T10:56:50.647Z,6.70
2024-02-20T11:01:54.281Z,9.00
2024-02-20T11:06:59.342Z,7.30
2024-02-20T11:12:10.645Z,6.20
2024-02-20T11:17:24.977Z,6.10
2024-02-20T11:22:34.427Z,5.00
2024-02-20T11:27:41.313Z,5.40
2024-02-20T11:32:50.298Z,6.70
2024-02-20T11:37:56.289Z,5.70
2024-02-20T11:43:02.341Z,9.30
2024-02-20T11:48:08.879Z,5.60
2024-02-20T11:53:18.641Z,6.60
2024-02-20T11:58:28.084Z,6.50
2024-02-20T12:03:36.011Z,4.50
2024-02-20T12:08:43.586Z,4.10
2024-02-20T12:13:53.370Z,5.20
2024-02-20T12:24:09.284Z,4.00
2024-02-20T12:29:13.432Z,2.80
2024-02-20T12:34:19.543Z,3.50
2024-02-20T12:39:26.837Z,4.90
2024-02-20T12:44:30.825Z,8.10
2024-02-20T12:49:34.924Z,4.80
2024-02-20T12:54:40.375Z,5.50
2024-02-20T12:59:44.270Z,5.70
2024-02-20T13:04:50.884Z,6.10
2024-02-20T13:09:54.972Z,6.20
2024-02-20T13:15:02.179Z,5.80
2024-02-20T13:20:06.827Z,6.40
2024-02-20T13:25:10.546Z,5.90
2024-02-20T13:30:16.715Z,11.90
2024-02-20T13:35:21.162Z,6.20
2024-02-20T13:40:25.254Z,7.10
2024-02-20T13:45:30.042Z,5.70
2024-02-20T13:50:33.618Z,10.90
2024-02-20T13:55:37.154Z,9.30
2024-02-20T14:00:42.270Z,5.90
2024-02-20T14:05:45.935Z,7.20
2024-02-20T14:10:49.852Z,6.30
2024-02-20T14:15:55.256Z,7.80
2024-02-20T14:20:59.347Z,6.40
2024-02-20T14:26:06.003Z,8.20
2024-02-20T14:31:12.386Z,9.80
2024-02-20T14:36:17.416Z,8.80
2024-02-20T14:41:21.106Z,13.50
2024-02-20T14:46:24.548Z,14.90
2024-02-20T14:51:28.128Z,14.70
2024-02-20T14:56:33.053Z,16.40
2024-02-20T15:01:37.544Z,12.50
2024-02-20T15:06:44.862Z,14.60
2024-02-20T15:11:48.305Z,11.10
2024-02-20T15:16:51.988Z,13.30
2024-02-20T15:21:57.755Z,11.50
2024-02-20T15:27:02.335Z,10.80
2024-02-20T15:32:08.069Z,11.20
2024-02-20T15:37:12.054Z,7.90
2024-02-20T15:42:16.028Z,8.80
2024-02-20T15:47:21.615Z,9.60
2024-02-20T15:52:28.806Z,10.60
2024-02-20T15:57:32.347Z,12.90
2024-02-20T16:02:37.648Z,11.20
2024-02-20T16:07:41.860Z,12.70
2024-02-20T16:12:45.648Z,12.30
2024-02-20T16:17:49.399Z,11.50
2024-02-20T16:22:53.131Z,15.30
2024-02-20T16:27:56.666Z,16.30
2024-02-20T16:33:00.820Z,15.50
2024-02-20T16:38:04.794Z,14.60
2024-02-20T16:43:11.011Z,22.20
2024-02-20T16:48:14.956Z,11.10
2024-02-20T16:53:18.460Z,13.70
2024-02-20T16:58:22.024Z,16.10
2024-02-20T17:03:25.690Z,19.80
2024-02-20T17:08:35.038Z,30.70
2024-02-20T17:13:38.516Z,19.80
2024-02-20T17:18:42.485Z,20.20
2024-02-20T17:23:46.663Z,20.50
2024-02-20T17:28:50.076Z,18.80
2024-02-20T17:33:54.459Z,16.70
2024-02-20T17:38:57.908Z,18.50
2024-02-20T17:44:01.363Z,16.30
2024-02-20T17:49:05.109Z,21.40
2024-02-20T17:54:11.486Z,20.60
2024-02-20T17:59:14.899Z,24.40
2024-02-20T18:04:18.390Z,19.10
2024-02-20T18:09:22.453Z,16.00
2024-02-20T18:14:29.069Z,15.40
2024-02-20T18:19:32.593Z,14.60
2024-02-20T18:24:36.242Z,13.00
2024-02-20T18:29:40.124Z,12.90
2024-02-20T18:34:43.944Z,11.20
2024-02-20T18:39:51.449Z,10.20
2024-02-20T18:44:55.120Z,6.80
2024-02-20T18:49:58.579Z,8.70
2024-02-20T18:55:03.314Z,17.50
2024-02-20T19:00:07.866Z,14.50
2024-02-20T19:05:11.972Z,9.70
2024-02-20T19:10:15.568Z,9.60
2024-02-20T19:15:19.219Z,9.80
2024-02-20T19:20:24.076Z,16.70
2024-02-20T19:25:27.741Z,15.20
2024-02-20T19:30:31.213Z,11.60
2024-02-20T19:35:36.016Z,10.80
2024-02-20T19:40:41.541Z,7.10
2024-02-20T19:45:45.549Z,9.10
2024-02-20T19:50:48.961Z,8.50
2024-02-20T19:55:52.959Z,8.00
2024-02-20T20:00:56.462Z,7.90
2024-02-20T20:06:00.013Z,6.60
2024-02-20T20:11:03.847Z,6.60
2024-02-20T20:16:07.793Z,7.30
2024-02-20T20:21:12.513Z,7.70
2024-02-20T20:26:16.785Z,8.30
2024-02-20T20:31:20.357Z,8.30
2024-02-20T20:36:24.702Z,9.80
2024-02-20T20:41:28.835Z,6.60
2024-02-20T20:46:32.880Z,9.00
2024-02-20T20:51:36.500Z,10.60
2024-02-20T20:56:39.871Z,8.50
2024-02-20T21:01:44.439Z,10.60
2024-02-20T21:06:47.916Z,8.80
2024-02-20T21:11:51.463Z,9.10
2024-02-20T21:16:55.275Z,11.40
2024-02-20T21:21:58.870Z,7.10
2024-02-20T21:27:02.410Z,9.60
2024-02-20T21:32:06.098Z,9.00
2024-02-20T21:37:09.592Z,10.70
2024-02-20T21:42:12.990Z,15.50
2024-02-20T21:47:16.557Z,13.40
2024-02-20T21:52:19.989Z,11.80
2024-02-20T21:57:23.568Z,10.40
2024-02-20T22:02:27.810Z,9.50
2024-02-20T22:07:31.708Z,12.60
2024-02-20T22:12:36.198Z,10.40
2024-02-20T22:17:39.711Z,8.30
2024-02-20T22:22:43.585Z,9.20
2024-02-20T22:27:47.247Z,10.40
2024-02-20T22:32:50.996Z,9.90
2024-02-20T22:38:00.434Z,10.80
2024-02-20T22:43:04.584Z,11.10
2024-02-20T22:48:08.348Z,10.40
2024-02-20T22:53:11.937Z,14.20
2024-02-20T22:58:15.309Z,10.00
2024-02-20T23:03:18.763Z,9.50
2024-02-20T23:08:22.113Z,10.70
2024-02-20T23:13:25.558Z,9.30
2024-02-20T23:18:29.110Z,10.90
2024-02-20T23:23:32.472Z,10.20
2024-02-20T23:28:35.862Z,11.20
2024-02-20T23:33:39.258Z,10.60
2024-02-20T23:38:43.236Z,11.20
2024-02-20T23:43:46.599Z,12.00
2024-02-20T23:48:50.177Z,15.70
2024-02-20T23:53:53.760Z,12.00
2024-02-20T23:58:57.295Z,9.20
